createdAt,value
2023-08-22T00:01:36.248Z,20.99
2023-08-22T00:04:02.713Z,21.02
2023-08-22T00:06:29.083Z,21.01
2023-08-22T00:08:55.515Z,20.99
2023-08-22T00:11:21.921Z,20.99
2023-08-22T00:13:48.324Z,21.00
2023-08-22T00:16:14.748Z,20.98
2023-08-22T00:18:41.142Z,20.97
2023-08-22T00:21:07.454Z,20.94
2023-08-22T00:23:33.842Z,20.89
2023-08-22T00:26:00.166Z,20.86
2023-08-22T00:28:26.583Z,20.84
2023-08-22T00:30:54.123Z,20.86
2023-08-22T00:33:20.564Z,20.85
2023-08-22T00:35:46.990Z,20.86
2023-08-22T00:38:13.418Z,20.85
2023-08-22T00:40:39.812Z,20.82
2023-08-22T00:43:06.165Z,20.78
2023-08-22T00:45:32.603Z,20.76
2023-08-22T00:47:59.536Z,20.74
2023-08-22T00:50:26.155Z,20.72
2023-08-22T00:52:52.585Z,20.68
2023-08-22T00:55:19.737Z,20.66
2023-08-22T00:57:46.629Z,20.64
2023-08-22T01:00:13.169Z,20.62
2023-08-22T01:02:40.292Z,20.59
2023-08-22T01:05:07.674Z,20.55
2023-08-22T01:07:41.356Z,20.54
2023-08-22T01:10:29.400Z,20.57
2023-08-22T01:12:59.902Z,20.64
2023-08-22T01:15:28.949Z,20.56
2023-08-22T01:17:57.976Z,20.54
2023-08-22T01:20:25.577Z,20.52
2023-08-22T01:22:52.132Z,20.54
2023-08-22T01:25:18.729Z,20.53
2023-08-22T01:27:55.568Z,20.57
2023-08-22T01:30:36.530Z,20.58
2023-08-22T01:33:10.533Z,20.58
2023-08-22T01:35:40.146Z,20.59
2023-08-22T01:38:07.648Z,20.59
2023-08-22T01:40:34.337Z,20.60
2023-08-22T01:43:01.009Z,20.61
2023-08-22T01:45:27.387Z,20.64
2023-08-22T01:47:53.792Z,20.66
2023-08-22T01:50:20.324Z,20.66
2023-08-22T01:52:46.721Z,20.65
2023-08-22T01:55:13.106Z,20.65
2023-08-22T01:57:39.566Z,20.64
2023-08-22T02:00:06.882Z,20.63
2023-08-22T02:02:33.331Z,20.62
2023-08-22T02:04:59.768Z,20.58
2023-08-22T02:07:26.174Z,20.57
2023-08-22T02:09:52.540Z,20.56
2023-08-22T02:12:18.931Z,20.54
2023-08-22T02:14:45.347Z,20.49
2023-08-22T02:17:11.753Z,20.47
2023-08-22T02:19:38.108Z,20.43
2023-08-22T02:22:05.965Z,20.38
2023-08-22T02:24:32.469Z,20.33
2023-08-22T02:26:58.851Z,20.27
2023-08-22T02:29:25.326Z,20.24
2023-08-22T02:31:51.804Z,20.18
2023-08-22T02:34:18.184Z,20.13
2023-08-22T02:36:44.569Z,20.08
2023-08-22T02:39:10.980Z,20.05
2023-08-22T02:41:37.373Z,20.02
2023-08-22T02:44:03.879Z,19.99
2023-08-22T02:46:30.235Z,19.95
2023-08-22T02:48:56.608Z,19.91
2023-08-22T02:51:23.109Z,19.87
2023-08-22T02:53:49.565Z,19.83
2023-08-22T02:56:16.071Z,19.80
2023-08-22T02:58:42.588Z,19.78
2023-08-22T03:01:09.040Z,19.76
2023-08-22T03:03:35.565Z,19.76
2023-08-22T03:06:02.086Z,19.76
2023-08-22T03:08:28.514Z,19.74
2023-08-22T03:11:00.053Z,19.71
2023-08-22T03:13:26.492Z,19.68
2023-08-22T03:15:53.719Z,19.66
2023-08-22T03:18:20.155Z,19.64
2023-08-22T03:20:47.012Z,19.58
2023-08-22T03:23:14.973Z,19.53
2023-08-22T03:25:41.412Z,19.52
2023-08-22T03:28:07.831Z,19.48
2023-08-22T03:30:34.327Z,19.41
2023-08-22T03:33:00.736Z,19.39
2023-08-22T03:35:27.747Z,19.38
2023-08-22T03:37:54.110Z,19.38
2023-08-22T03:40:20.527Z,19.37
2023-08-22T03:42:46.908Z,19.38
2023-08-22T03:45:13.328Z,19.41
2023-08-22T03:47:40.035Z,19.41
2023-08-22T03:50:06.905Z,19.41
2023-08-22T03:52:33.316Z,19.40
2023-08-22T03:54:59.677Z,19.40
2023-08-22T03:57:26.067Z,19.41
2023-08-22T03:59:52.508Z,19.41
2023-08-22T04:02:19.590Z,19.43
2023-08-22T04:04:46.018Z,19.43
2023-08-22T04:07:12.341Z,19.44
2023-08-22T04:09:38.676Z,19.44
2023-08-22T04:12:05.157Z,19.45
2023-08-22T04:14:31.525Z,19.44
2023-08-22T04:16:57.942Z,19.45
2023-08-22T04:19:24.408Z,19.44
2023-08-22T04:21:50.770Z,19.44
2023-08-22T04:24:17.205Z,19.44
2023-08-22T04:26:44.036Z,19.43
2023-08-22T04:29:11.051Z,19.40
2023-08-22T04:31:37.388Z,19.40
2023-08-22T04:34:03.768Z,19.39
2023-08-22T04:36:30.129Z,19.38
2023-08-22T04:38:56.472Z,19.39
2023-08-22T04:41:22.847Z,19.40
2023-08-22T04:43:49.234Z,19.38
2023-08-22T04:46:16.869Z,19.38
2023-08-22T04:48:46.106Z,19.39
2023-08-22T04:51:12.528Z,19.38
2023-08-22T04:53:38.914Z,19.39
2023-08-22T04:56:05.374Z,19.39
2023-08-22T04:58:31.746Z,19.40
2023-08-22T05:00:58.154Z,19.41
2023-08-22T05:03:24.523Z,19.44
2023-08-22T05:05:51.387Z,19.44
2023-08-22T05:08:17.889Z,19.46
2023-08-22T05:10:44.239Z,19.49
2023-08-22T05:13:10.719Z,19.52
2023-08-22T05:15:37.059Z,19.58
2023-08-22T05:18:03.719Z,19.62
2023-08-22T05:20:30.504Z,19.66
2023-08-22T05:22:56.870Z,19.71
2023-08-22T05:25:23.230Z,19.77
2023-08-22T05:27:49.649Z,19.85
2023-08-22T05:30:16.012Z,19.90
2023-08-22T05:32:42.443Z,19.96
2023-08-22T05:35:08.936Z,20.02
2023-08-22T05:37:35.319Z,20.08
2023-08-22T05:40:01.733Z,20.16
2023-08-22T05:42:28.084Z,20.20
2023-08-22T05:44:54.476Z,20.22
2023-08-22T05:47:20.860Z,20.26
2023-08-22T05:49:47.251Z,20.31
2023-08-22T05:52:13.636Z,20.33
2023-08-22T05:54:41.915Z,20.40
2023-08-22T05:57:08.380Z,20.48
2023-08-22T05:59:34.799Z,20.54
2023-08-22T06:02:01.136Z,20.57
2023-08-22T06:04:27.532Z,20.59
2023-08-22T06:06:53.949Z,20.63
2023-08-22T06:09:20.426Z,20.64
2023-08-22T06:11:46.842Z,20.64
2023-08-22T06:14:13.193Z,20.70
2023-08-22T06:16:39.555Z,20.86
2023-08-22T06:19:06.014Z,21.05
2023-08-22T06:21:32.449Z,21.31
2023-08-22T06:23:58.779Z,21.45
2023-08-22T06:26:25.173Z,21.53
2023-08-22T06:28:51.564Z,21.53
2023-08-22T06:31:18.031Z,21.56
2023-08-22T06:33:44.523Z,21.53
2023-08-22T06:36:10.891Z,21.50
2023-08-22T06:38:37.220Z,21.50
2023-08-22T06:41:05.549Z,21.54
2023-08-22T06:43:32.054Z,21.50
2023-08-22T06:45:58.531Z,21.53
2023-08-22T06:48:40.263Z,21.55
2023-08-22T06:51:08.909Z,21.60
2023-08-22T06:53:35.339Z,21.79
2023-08-22T06:56:01.843Z,22.01
2023-08-22T06:58:28.208Z,22.21
2023-08-22T07:00:54.645Z,22.47
2023-08-22T07:03:21.091Z,22.70
2023-08-22T07:05:51.180Z,22.84
2023-08-22T07:08:17.536Z,23.03
2023-08-22T07:10:43.983Z,23.22
2023-08-22T07:13:10.428Z,23.45
2023-08-22T07:15:39.597Z,23.62
2023-08-22T07:18:06.333Z,23.94
2023-08-22T07:20:32.737Z,24.17
2023-08-22T07:22:59.103Z,24.42
2023-08-22T07:25:25.560Z,24.69
2023-08-22T07:27:51.938Z,24.90
2023-08-22T07:30:18.313Z,25.02
2023-08-22T07:32:44.866Z,25.17
2023-08-22T07:35:11.488Z,25.41
2023-08-22T07:37:37.946Z,25.43
2023-08-22T07:40:04.873Z,25.46
2023-08-22T07:42:31.303Z,25.47
2023-08-22T07:44:57.698Z,25.27
2023-08-22T07:47:24.111Z,25.16
2023-08-22T07:49:50.659Z,25.04
2023-08-22T07:52:17.042Z,25.08
2023-08-22T07:54:43.447Z,25.25
2023-08-22T07:57:18.474Z,25.23
2023-08-22T07:59:45.518Z,25.29
2023-08-22T08:02:12.044Z,25.49
2023-08-22T08:04:38.461Z,25.66
2023-08-22T08:07:05.478Z,25.78
2023-08-22T08:09:35.480Z,25.87
2023-08-22T08:12:02.958Z,25.96
2023-08-22T08:14:29.319Z,25.93
2023-08-22T08:16:55.862Z,25.98
2023-08-22T08:19:25.019Z,25.94
2023-08-22T08:21:53.271Z,25.91
2023-08-22T08:24:19.707Z,25.82
2023-08-22T08:26:46.084Z,25.73
2023-08-22T08:29:12.462Z,25.70
2023-08-22T08:31:38.883Z,25.72
2023-08-22T08:34:05.766Z,25.65
2023-08-22T08:36:32.233Z,25.79
2023-08-22T08:38:58.575Z,25.90
2023-08-22T08:41:25.323Z,26.11
2023-08-22T08:43:52.043Z,26.27
2023-08-22T08:46:19.009Z,26.46
2023-08-22T08:48:46.660Z,26.44
2023-08-22T08:51:13.178Z,26.26
2023-08-22T08:53:41.837Z,26.14
2023-08-22T08:56:08.407Z,26.07
2023-08-22T08:58:34.746Z,26.15
2023-08-22T09:01:01.358Z,26.09
2023-08-22T09:03:27.848Z,26.25
2023-08-22T09:05:54.204Z,26.37
2023-08-22T09:08:21.294Z,26.70
2023-08-22T09:10:54.568Z,26.93
2023-08-22T09:13:38.980Z,27.11
2023-08-22T09:16:17.089Z,27.46
2023-08-22T09:18:43.550Z,27.60
2023-08-22T09:21:09.970Z,27.71
2023-08-22T09:23:36.353Z,27.73
2023-08-22T09:26:02.719Z,27.62
2023-08-22T09:28:29.277Z,27.48
2023-08-22T09:30:55.681Z,27.55
2023-08-22T09:33:22.175Z,27.67
2023-08-22T09:35:48.628Z,27.90
2023-08-22T09:38:15.018Z,28.23
2023-08-22T09:40:53.035Z,28.76
2023-08-22T09:43:20.338Z,28.97
2023-08-22T09:45:49.507Z,29.07
2023-08-22T09:48:25.421Z,29.00
2023-08-22T09:50:56.988Z,28.80
2023-08-22T09:53:24.854Z,28.95
2023-08-22T09:55:52.824Z,29.28
2023-08-22T09:58:20.387Z,29.40
2023-08-22T10:00:47.173Z,29.68
2023-08-22T10:03:14.655Z,30.06
2023-08-22T10:05:42.284Z,30.42
2023-08-22T10:08:08.702Z,29.91
2023-08-22T10:10:36.169Z,29.65
2023-08-22T10:13:04.784Z,29.35
2023-08-22T10:15:33.499Z,29.50
2023-08-22T10:18:00.446Z,30.19
2023-08-22T10:20:27.101Z,30.40
2023-08-22T10:22:53.643Z,30.78
2023-08-22T10:25:20.131Z,30.48
2023-08-22T10:27:49.318Z,30.37
2023-08-22T10:30:15.684Z,30.49
2023-08-22T10:32:50.829Z,30.75
2023-08-22T10:35:17.248Z,30.16
2023-08-22T10:37:51.659Z,29.76
2023-08-22T10:40:25.759Z,29.55
2023-08-22T10:43:03.254Z,29.81
2023-08-22T10:45:37.693Z,29.89
2023-08-22T10:48:08.766Z,30.09
2023-08-22T10:50:35.241Z,30.41
2023-08-22T10:53:26.390Z,30.67
2023-08-22T10:55:53.814Z,30.44
2023-08-22T10:58:41.337Z,29.93
2023-08-22T11:01:10.453Z,29.62
2023-08-22T11:03:37.388Z,29.44
2023-08-22T11:06:11.922Z,29.32
2023-08-22T11:08:38.928Z,29.32
2023-08-22T11:11:05.838Z,29.01
2023-08-22T11:13:36.762Z,28.93
2023-08-22T11:16:03.549Z,28.87
2023-08-22T11:18:29.959Z,28.60
2023-08-22T11:20:56.733Z,28.70
2023-08-22T11:23:23.280Z,28.67
2023-08-22T11:25:49.642Z,28.60
2023-08-22T11:28:16.062Z,28.49
2023-08-22T11:30:42.480Z,28.55
2023-08-22T11:33:09.242Z,28.71
2023-08-22T11:35:35.658Z,28.93
2023-08-22T11:38:02.094Z,28.80
2023-08-22T11:40:28.729Z,28.89
2023-08-22T11:42:57.683Z,29.60
2023-08-22T11:45:24.299Z,29.94
2023-08-22T11:47:56.218Z,30.59
2023-08-22T11:50:30.132Z,30.48
2023-08-22T11:53:09.639Z,30.25
2023-08-22T11:55:39.940Z,30.10
2023-08-22T11:58:06.340Z,29.78
2023-08-22T12:00:33.760Z,29.62
2023-08-22T12:03:01.364Z,29.27
2023-08-22T12:05:35.827Z,29.58
2023-08-22T12:08:07.925Z,29.98
2023-08-22T12:10:46.883Z,30.41
2023-08-22T12:13:15.012Z,30.69
2023-08-22T12:15:42.023Z,31.06
2023-08-22T12:18:10.075Z,31.60
2023-08-22T12:20:38.580Z,31.83
2023-08-22T12:23:05.695Z,31.84
2023-08-22T12:25:33.163Z,32.01
2023-08-22T12:27:59.471Z,32.26
2023-08-22T12:30:26.486Z,32.25
2023-08-22T12:32:52.991Z,32.40
2023-08-22T12:35:19.406Z,32.27
2023-08-22T12:37:46.005Z,32.20
2023-08-22T12:40:12.530Z,32.33
2023-08-22T12:42:39.397Z,32.35
2023-08-22T12:45:09.631Z,32.54
2023-08-22T12:47:37.523Z,32.81
2023-08-22T12:50:04.677Z,33.10
2023-08-22T12:52:31.141Z,33.24
2023-08-22T12:54:57.501Z,33.32
2023-08-22T12:57:23.909Z,33.20
2023-08-22T12:59:50.518Z,33.31
2023-08-22T13:02:17.044Z,33.49
2023-08-22T13:04:43.594Z,33.29
2023-08-22T13:07:11.452Z,33.24
2023-08-22T13:09:37.861Z,33.04
2023-08-22T13:12:04.517Z,33.15
2023-08-22T13:14:30.910Z,33.22
2023-08-22T13:16:57.333Z,32.97
2023-08-22T13:19:23.686Z,33.20
2023-08-22T13:21:50.105Z,33.39
2023-08-22T13:24:16.472Z,33.52
2023-08-22T13:26:43.022Z,32.89
2023-08-22T13:29:09.390Z,32.84
2023-08-22T13:31:35.819Z,33.01
2023-08-22T13:34:02.513Z,32.81
2023-08-22T13:36:29.071Z,32.94
2023-08-22T13:38:55.494Z,32.92
2023-08-22T13:41:21.916Z,32.96
2023-08-22T13:43:48.366Z,32.94
2023-08-22T13:46:14.850Z,32.75
2023-08-22T13:48:41.195Z,32.74
2023-08-22T13:51:07.746Z,32.96
2023-08-22T13:53:34.073Z,33.05
2023-08-22T13:56:00.599Z,33.28
2023-08-22T13:58:27.002Z,33.47
2023-08-22T14:00:53.352Z,33.31
2023-08-22T14:03:19.956Z,33.13
2023-08-22T14:05:46.658Z,32.92
2023-08-22T14:08:13.137Z,33.15
2023-08-22T14:10:39.493Z,32.55
2023-08-22T14:13:05.864Z,32.88
2023-08-22T14:15:32.235Z,32.57
2023-08-22T14:17:58.709Z,32.64
2023-08-22T14:20:25.181Z,32.92
2023-08-22T14:22:51.603Z,32.89
2023-08-22T14:25:17.946Z,32.74
2023-08-22T14:27:45.682Z,32.91
2023-08-22T14:30:12.431Z,32.91
2023-08-22T14:32:39.132Z,32.63
2023-08-22T14:35:06.061Z,32.33
2023-08-22T14:37:32.455Z,32.18
2023-08-22T14:39:58.797Z,32.38
2023-08-22T14:42:25.203Z,32.19
2023-08-22T14:44:51.634Z,31.95
2023-08-22T14:47:18.012Z,31.48
2023-08-22T14:49:44.444Z,31.44
2023-08-22T14:52:10.820Z,31.13
2023-08-22T14:54:37.207Z,31.10
2023-08-22T14:57:03.646Z,31.27
2023-08-22T14:59:30.044Z,31.29
2023-08-22T15:01:56.427Z,31.44
2023-08-22T15:04:22.833Z,31.53
2023-08-22T15:06:49.307Z,31.45
2023-08-22T15:09:15.697Z,31.27
2023-08-22T15:11:42.112Z,31.12
2023-08-22T15:14:08.555Z,30.63
2023-08-22T15:16:35.300Z,30.60
2023-08-22T15:19:02.684Z,30.44
2023-08-22T15:21:29.090Z,30.28
2023-08-22T15:23:55.435Z,30.06
2023-08-22T15:26:21.853Z,30.06
2023-08-22T15:28:48.195Z,29.87
2023-08-22T15:31:14.611Z,29.72
2023-08-22T15:33:41.093Z,29.71
2023-08-22T15:36:07.539Z,29.57
2023-08-22T15:38:35.118Z,29.36
2023-08-22T15:41:02.226Z,29.25
2023-08-22T15:43:31.199Z,29.24
2023-08-22T15:45:57.562Z,29.13
2023-08-22T15:48:23.917Z,28.93
2023-08-22T15:50:50.295Z,28.76
2023-08-22T15:53:16.676Z,28.68
2023-08-22T15:55:43.053Z,28.56
2023-08-22T15:58:09.461Z,28.49
2023-08-22T16:00:35.997Z,28.36
2023-08-22T16:03:02.492Z,28.37
2023-08-22T16:05:28.988Z,28.35
2023-08-22T16:07:55.410Z,28.37
2023-08-22T16:10:21.944Z,28.34
2023-08-22T16:12:48.439Z,28.14
2023-08-22T16:15:14.858Z,28.07
2023-08-22T16:17:41.354Z,28.00
2023-08-22T16:20:08.261Z,27.98
2023-08-22T16:22:34.711Z,27.83
2023-08-22T16:25:01.116Z,27.81
2023-08-22T16:27:37.108Z,27.53
2023-08-22T16:30:06.353Z,27.67
2023-08-22T16:32:32.772Z,27.64
2023-08-22T16:35:01.389Z,27.61
2023-08-22T16:37:27.785Z,27.65
2023-08-22T16:39:54.118Z,27.45
2023-08-22T16:42:20.493Z,27.43
2023-08-22T16:44:46.883Z,27.45
2023-08-22T16:47:13.301Z,27.34
2023-08-22T16:49:39.657Z,27.21
2023-08-22T16:52:06.080Z,27.18
2023-08-22T16:54:32.493Z,27.08
2023-08-22T16:56:58.895Z,27.13
2023-08-22T16:59:25.315Z,27.03
2023-08-22T17:01:51.700Z,26.97
2023-08-22T17:04:18.106Z,26.87
2023-08-22T17:06:44.543Z,26.70
2023-08-22T17:09:10.883Z,26.83
2023-08-22T17:11:37.264Z,26.82
2023-08-22T17:14:03.701Z,26.81
2023-08-22T17:16:30.189Z,26.72
2023-08-22T17:18:56.649Z,26.71
2023-08-22T17:21:23.073Z,26.70
2023-08-22T17:23:49.416Z,26.69
2023-08-22T17:26:15.834Z,26.68
2023-08-22T17:28:42.173Z,26.47
2023-08-22T17:31:09.916Z,26.48
2023-08-22T17:33:36.825Z,26.46
2023-08-22T17:36:04.330Z,26.37
2023-08-22T17:38:30.846Z,26.29
2023-08-22T17:41:10.379Z,26.26
2023-08-22T17:43:39.550Z,26.19
2023-08-22T17:46:06.142Z,26.01
2023-08-22T17:48:32.584Z,25.98
2023-08-22T17:51:00.533Z,26.01
2023-08-22T17:53:27.913Z,25.95
2023-08-22T17:55:54.470Z,25.94
2023-08-22T17:58:21.543Z,25.95
2023-08-22T18:00:52.310Z,25.88
2023-08-22T18:03:19.731Z,25.77
2023-08-22T18:05:59.126Z,25.72
2023-08-22T18:08:26.405Z,25.67
2023-08-22T18:10:53.603Z,25.67
2023-08-22T18:13:20.292Z,25.51
2023-08-22T18:16:02.731Z,25.27
2023-08-22T18:18:33.800Z,25.33
2023-08-22T18:21:08.406Z,25.37
2023-08-22T18:23:35.030Z,25.28
2023-08-22T18:26:03.225Z,25.24
2023-08-22T18:28:32.285Z,25.17
2023-08-22T18:31:01.614Z,25.11
2023-08-22T18:33:28.204Z,25.08
2023-08-22T18:35:54.603Z,25.01
2023-08-22T18:38:24.417Z,24.97
2023-08-22T18:40:54.801Z,24.92
2023-08-22T18:43:21.558Z,24.92
2023-08-22T18:45:48.440Z,24.89
2023-08-22T18:48:15.016Z,24.82
2023-08-22T18:50:41.444Z,24.75
2023-08-22T18:53:07.866Z,24.64
2023-08-22T18:55:35.449Z,24.66
2023-08-22T18:58:02.315Z,24.60
2023-08-22T19:00:28.775Z,24.56
2023-08-22T19:02:57.334Z,24.51
2023-08-22T19:05:24.222Z,24.44
2023-08-22T19:07:50.698Z,24.42
2023-08-22T19:10:17.281Z,24.33
2023-08-22T19:12:43.697Z,24.28
2023-08-22T19:15:10.302Z,24.25
2023-08-22T19:17:36.670Z,24.18
2023-08-22T19:20:03.228Z,24.09
2023-08-22T19:22:29.637Z,24.06
2023-08-22T19:24:56.018Z,24.00
2023-08-22T19:27:22.380Z,23.97
2023-08-22T19:29:49.178Z,23.90
2023-08-22T19:32:23.786Z,23.84
2023-08-22T19:34:58.004Z,23.78
2023-08-22T19:37:24.427Z,23.69
2023-08-22T19:39:50.946Z,23.62
2023-08-22T19:42:17.613Z,23.56
2023-08-22T19:44:43.958Z,23.53
2023-08-22T19:47:10.386Z,23.48
2023-08-22T19:49:36.879Z,23.39
2023-08-22T19:52:03.461Z,23.35
2023-08-22T19:54:29.976Z,23.30
2023-08-22T19:56:56.354Z,23.28
2023-08-22T19:59:22.724Z,23.23
2023-08-22T20:01:49.189Z,23.18
2023-08-22T20:04:15.610Z,23.13
2023-08-22T20:06:42.045Z,23.09
2023-08-22T20:09:12.725Z,23.03
2023-08-22T20:11:40.152Z,22.99
2023-08-22T20:14:08.446Z,22.94
2023-08-22T20:16:35.905Z,22.93
2023-08-22T20:19:02.390Z,22.94
2023-08-22T20:21:28.784Z,22.91
2023-08-22T20:23:55.696Z,22.83
2023-08-22T20:26:22.880Z,22.80
2023-08-22T20:28:49.679Z,22.76
2023-08-22T20:31:17.100Z,22.72
2023-08-22T20:33:46.368Z,22.68
2023-08-22T20:36:12.799Z,22.64
2023-08-22T20:38:42.144Z,22.60
2023-08-22T20:41:08.490Z,22.54
2023-08-22T20:43:34.911Z,22.47
2023-08-22T20:46:01.420Z,22.40
2023-08-22T20:48:27.965Z,22.33
2023-08-22T20:50:54.827Z,22.29
2023-08-22T20:53:21.165Z,22.23
2023-08-22T20:55:49.255Z,22.15
2023-08-22T20:58:15.537Z,22.14
2023-08-22T21:00:41.931Z,22.04
2023-08-22T21:03:08.475Z,21.98
2023-08-22T21:05:35.779Z,21.92
2023-08-22T21:08:02.121Z,21.86
2023-08-22T21:10:31.809Z,21.85
2023-08-22T21:12:58.537Z,21.83
2023-08-22T21:15:24.900Z,21.77
2023-08-22T21:17:51.694Z,21.69
2023-08-22T21:20:18.159Z,21.62
2023-08-22T21:22:44.839Z,21.56
2023-08-22T21:25:11.640Z,21.54
2023-08-22T21:27:38.136Z,21.50
2023-08-22T21:30:04.937Z,21.47
2023-08-22T21:32:31.437Z,21.42
2023-08-22T21:34:57.840Z,21.37
2023-08-22T21:37:24.462Z,21.34
2023-08-22T21:39:50.869Z,21.29
2023-08-22T21:42:17.202Z,21.25
2023-08-22T21:44:44.025Z,21.22
2023-08-22T21:47:13.064Z,21.16
2023-08-22T21:49:39.399Z,21.14
2023-08-22T21:52:05.928Z,21.09
2023-08-22T21:54:32.369Z,21.04
2023-08-22T21:56:58.742Z,20.98
2023-08-22T21:59:25.183Z,20.90
2023-08-22T22:01:51.584Z,20.84
2023-08-22T22:04:17.938Z,20.81
2023-08-22T22:06:44.369Z,20.76
2023-08-22T22:09:10.777Z,20.72
2023-08-22T22:11:37.104Z,20.69
2023-08-22T22:14:03.599Z,20.66
2023-08-22T22:16:43.021Z,20.62
2023-08-22T22:19:11.044Z,20.56
2023-08-22T22:21:37.487Z,20.54
2023-08-22T22:24:03.970Z,20.54
2023-08-22T22:26:30.382Z,20.50
2023-08-22T22:28:56.738Z,20.47
2023-08-22T22:31:23.156Z,20.44
2023-08-22T22:33:49.489Z,20.41
2023-08-22T22:36:16.225Z,20.35
2023-08-22T22:38:42.562Z,20.31
2023-08-22T22:41:08.908Z,20.28
2023-08-22T22:43:35.319Z,20.25
2023-08-22T22:46:02.165Z,20.26
2023-08-22T22:48:28.856Z,20.22
2023-08-22T22:50:55.816Z,20.15
2023-08-22T22:53:22.242Z,20.12
2023-08-22T22:55:48.764Z,20.09
2023-08-22T22:58:15.263Z,20.07
2023-08-22T23:00:41.703Z,20.02
2023-08-22T23:03:08.164Z,19.99
2023-08-22T23:05:34.655Z,19.96
2023-08-22T23:08:02.256Z,19.92
2023-08-22T23:10:28.619Z,19.86
2023-08-22T23:12:55.403Z,19.81
2023-08-22T23:15:21.784Z,19.80
2023-08-22T23:17:48.472Z,19.77
2023-08-22T23:20:16.164Z,19.76
2023-08-22T23:22:44.515Z,19.74
2023-08-22T23:25:11.613Z,19.71
2023-08-22T23:27:38.933Z,19.69
2023-08-22T23:30:09.557Z,19.66
2023-08-22T23:32:36.051Z,19.66
2023-08-22T23:35:05.005Z,19.62
2023-08-22T23:37:31.950Z,19.57
2023-08-22T23:39:58.899Z,19.52
2023-08-22T23:42:25.359Z,19.50
2023-08-22T23:44:51.809Z,19.46
2023-08-22T23:47:18.215Z,19.44
2023-08-22T23:49:44.922Z,19.43
2023-08-22T23:52:11.547Z,19.42
2023-08-22T23:54:38.244Z,19.40
2023-08-22T23:57:05.463Z,19.36
2023-08-22T23:59:32.976Z,19.35
